Time;durP1;ratioP1;P1;durP2;ratioP2;P2;SDS_P1;SDS_P2;PMS_P1;PMS_P2;Temp;Humidity;BMP_temperature;BMP_pressure;BME280_temperature;BME280_humidity;BME280_pressure;Samples;Min_cycle;Max_cycle;Signal;HPM_P1;HPM_P2
2022/10/18 00:01:12;;;;;;;53.55;23.10;;;13.70;99.90;;;;;;5036830;28;20453;-75
2022/10/18 00:03:38;;;;;;;27.08;16.92;;;13.70;99.90;;;;;;5036896;28;20037;-75
2022/10/18 00:06:07;;;;;;;39.63;19.35;;;13.70;99.90;;;;;;5053361;28;20056;-75
2022/10/18 00:08:34;;;;;;;67.78;24.98;;;13.70;99.90;;;;;;5052781;28;20053;-75
2022/10/18 00:11:00;;;;;;;44.53;21.83;;;13.70;99.90;;;;;;5054379;28;20401;-74
2022/10/18 00:13:26;;;;;;;36.85;19.55;;;13.60;99.90;;;;;;5053053;28;20055;-76
2022/10/18 00:15:54;;;;;;;47.70;22.17;;;13.60;99.90;;;;;;5052971;28;20092;-76
2022/10/18 00:18:20;;;;;;;44.53;23.10;;;13.50;99.90;;;;;;5053536;28;20040;-75
2022/10/18 00:21:03;;;;;;;39.53;21.85;;;13.70;99.90;;;;;;5053081;28;20056;-75
2022/10/18 00:23:30;;;;;;;34.00;20.50;;;13.80;99.90;;;;;;5054128;28;20104;-76
2022/10/18 00:26:03;;;;;;;36.78;19.58;;;14.30;99.90;;;;;;5053551;28;20051;-76
2022/10/18 00:28:30;;;;;;;38.25;20.85;;;13.70;99.90;;;;;;5053030;28;20047;-76
2022/10/18 00:30:56;;;;;;;29.35;18.42;;;13.70;99.90;;;;;;5053168;28;20052;-76
2022/10/18 00:33:21;;;;;;;33.33;18.58;;;13.70;99.90;;;;;;5069592;28;20109;-76
2022/10/18 00:35:47;;;;;;;32.97;19.23;;;13.60;99.90;;;;;;5036099;28;20044;-76
2022/10/18 00:38:13;;;;;;;33.95;18.80;;;13.80;99.90;;;;;;5053844;28;20385;-76
2022/10/18 00:40:38;;;;;;;29.40;17.05;;;13.60;99.90;;;;;;5052904;28;20114;-76
2022/10/18 00:43:04;;;;;;;32.90;18.15;;;13.50;99.90;;;;;;5036200;28;20052;-76
2022/10/18 00:45:30;;;;;;;32.78;18.02;;;13.60;99.90;;;;;;5052515;28;20552;-76
2022/10/18 00:48:00;;;;;;;32.22;17.80;;;13.60;99.90;;;;;;5051912;28;20044;-76
2022/10/18 00:50:30;;;;;;;32.40;18.45;;;13.60;99.90;;;;;;5052747;28;20049;-75
2022/10/18 00:52:58;;;;;;;33.15;17.15;;;13.90;99.90;;;;;;5052282;28;20045;-76
2022/10/18 00:55:30;;;;;;;27.02;16.08;;;13.50;99.90;;;;;;5052319;28;20501;-76
2022/10/18 00:57:56;;;;;;;26.40;16.65;;;13.60;99.90;;;;;;5053139;28;20497;-76
2022/10/18 01:00:22;;;;;;;26.08;15.80;;;13.70;99.90;;;;;;5052528;28;20044;-76
2022/10/18 01:02:48;;;;;;;26.92;15.63;;;13.60;99.90;;;;;;5053491;28;20194;-76
2022/10/18 01:05:16;;;;;;;25.95;15.05;;;13.60;99.90;;;;;;5052372;28;20049;-75
2022/10/18 01:07:58;;;;;;;24.80;15.30;;;13.60;99.90;;;;;;5053423;28;20040;-75
2022/10/18 01:10:36;;;;;;;27.73;15.38;;;13.60;99.90;;;;;;5052486;28;20478;-76
2022/10/18 01:13:26;;;;;;;24.58;14.90;;;13.50;99.90;;;;;;5052085;28;20061;-76
2022/10/18 01:16:30;;;;;;;23.45;13.95;;;13.50;99.90;;;;;;5052359;28;20052;-76
2022/10/18 01:19:29;;;;;;;23.73;13.38;;;13.50;99.90;;;;;;5049257;28;20056;-77
2022/10/18 01:22:03;;;;;;;24.02;14.48;;;13.50;99.90;;;;;;5049354;28;20061;-76
2022/10/18 01:24:46;;;;;;;28.33;14.63;;;13.50;99.90;;;;;;5053323;28;20081;-76
2022/10/18 01:27:15;;;;;;;23.98;13.93;;;13.50;99.90;;;;;;5053361;28;20045;-77
2022/10/18 01:29:53;;;;;;;20.13;12.98;;;13.40;99.90;;;;;;5052625;28;20132;-76
2022/10/18 01:32:27;;;;;;;27.52;15.05;;;13.40;99.90;;;;;;5052618;28;20092;-76
2022/10/18 01:35:02;;;;;;;26.65;14.02;;;13.40;99.90;;;;;;5068912;28;20048;-76
2022/10/18 01:37:30;;;;;;;23.73;13.50;;;13.30;99.90;;;;;;5052430;28;20155;-76
2022/10/18 01:39:58;;;;;;;20.70;12.80;;;13.40;99.90;;;;;;5053164;28;20396;-76
2022/10/18 01:42:24;;;;;;;26.92;14.77;;;13.40;99.90;;;;;;5053093;28;20052;-76
2022/10/18 01:44:52;;;;;;;39.35;17.80;;;13.30;99.90;;;;;;5053045;28;20053;-76
2022/10/18 01:47:19;;;;;;;27.55;14.95;;;13.40;99.90;;;;;;5052810;28;20037;-76
2022/10/18 01:49:45;;;;;;;26.98;15.18;;;13.40;99.90;;;;;;5053126;28;20052;-76
2022/10/18 01:52:15;;;;;;;25.45;14.75;;;13.30;99.90;;;;;;5052041;28;20041;-76
2022/10/18 01:54:47;;;;;;;25.17;14.43;;;13.30;99.90;;;;;;5053049;28;20045;-76
2022/10/18 01:57:23;;;;;;;35.15;17.05;;;13.20;99.90;;;;;;5035222;28;20041;-76
2022/10/18 02:00:00;;;;;;;36.63;19.40;;;13.20;99.90;;;;;;5035260;28;20428;-76
2022/10/18 02:02:58;;;;;;;39.40;20.00;;;13.20;99.90;;;;;;5052510;28;20439;-76
2022/10/18 02:05:39;;;;;;;30.67;18.15;;;13.20;99.90;;;;;;5069119;28;20044;-76
2022/10/18 02:08:29;;;;;;;30.45;16.65;;;13.10;99.90;;;;;;5053114;28;20045;-76
2022/10/18 02:11:16;;;;;;;33.83;17.67;;;13.30;99.90;;;;;;5068565;28;20092;-76
2022/10/18 02:13:54;;;;;;;33.08;17.80;;;13.10;99.90;;;;;;5051142;28;20057;-76
2022/10/18 02:16:25;;;;;;;24.58;15.82;;;13.20;99.90;;;;;;5053296;28;20401;-76
2022/10/18 02:18:59;;;;;;;24.77;14.32;;;13.00;99.90;;;;;;5055166;28;20053;-76
2022/10/18 02:21:27;;;;;;;25.00;14.85;;;13.10;99.90;;;;;;5055266;28;20064;-76
2022/10/18 02:23:54;;;;;;;35.10;17.33;;;13.10;99.90;;;;;;5056320;28;20044;-76
2022/10/18 02:26:20;;;;;;;30.95;17.50;;;13.10;99.90;;;;;;5056266;28;20132;-76
2022/10/18 02:28:46;;;;;;;33.25;16.23;;;13.00;99.90;;;;;;5055297;28;20175;-76
2022/10/18 02:31:19;;;;;;;28.88;16.63;;;13.00;99.90;;;;;;5022849;28;20041;-76
2022/10/18 02:33:52;;;;;;;44.75;19.27;;;13.10;99.90;;;;;;5055496;28;20048;-76
2022/10/18 02:36:43;;;;;;;28.75;15.15;;;13.10;99.90;;;;;;5054994;28;20041;-75
2022/10/18 02:39:24;;;;;;;29.80;16.58;;;13.10;99.90;;;;;;5055102;28;20049;-76
2022/10/18 02:41:50;;;;;;;22.48;14.73;;;13.80;99.90;;;;;;5056136;28;20056;-76
2022/10/18 02:44:15;;;;;;;26.73;15.73;;;13.10;99.90;;;;;;5054922;28;20049;-76
2022/10/18 02:46:42;;;;;;;34.08;15.90;;;13.10;99.90;;;;;;5071577;28;20052;-76
2022/10/18 02:49:07;;;;;;;20.65;12.38;;;13.00;99.90;;;;;;5054279;28;20137;-76
2022/10/18 02:51:33;;;;;;;27.98;15.88;;;13.00;99.90;;;;;;5054851;28;20076;-76
2022/10/18 02:53:59;;;;;;;28.27;15.02;;;13.00;99.90;;;;;;5056031;28;20481;-76
2022/10/18 02:56:24;;;;;;;20.27;11.88;;;12.80;99.90;;;;;;5055675;28;20041;-76
2022/10/18 02:58:50;;;;;;;33.95;15.43;;;13.00;99.90;;;;;;5054926;28;20041;-76
2022/10/18 03:01:16;;;;;;;24.10;12.63;;;12.80;99.90;;;;;;5055835;28;20554;-77
2022/10/18 03:03:41;;;;;;;23.67;13.45;;;13.00;99.90;;;;;;5055651;28;20342;-76
2022/10/18 03:06:07;;;;;;;37.30;16.90;;;12.90;99.90;;;;;;5054580;28;20045;-77
2022/10/18 03:08:34;;;;;;;35.55;16.55;;;12.90;99.90;;;;;;5055473;28;20048;-77
2022/10/18 03:11:00;;;;;;;26.88;14.27;;;12.90;99.90;;;;;;5055439;28;20088;-77
2022/10/18 03:13:25;;;;;;;24.88;13.27;;;12.60;99.90;;;;;;5037598;28;20089;-77
2022/10/18 03:15:51;;;;;;;27.80;14.02;;;12.80;99.90;;;;;;5054362;28;20059;-76
2022/10/18 03:18:17;;;;;;;62.72;20.00;;;13.00;99.90;;;;;;5054099;28;20060;-77
2022/10/18 03:20:43;;;;;;;22.90;12.35;;;12.70;99.90;;;;;;5054079;28;20041;-77
2022/10/18 03:23:08;;;;;;;133.18;21.90;;;12.90;99.90;;;;;;5055356;28;20131;-76
2022/10/18 03:25:34;;;;;;;108.28;22.52;;;12.70;99.90;;;;;;5055239;28;20476;-76
2022/10/18 03:28:00;;;;;;;51.17;16.80;;;12.80;99.90;;;;;;5053868;28;20041;-76
2022/10/18 03:30:26;;;;;;;51.33;14.00;;;12.70;99.90;;;;;;5053947;28;20127;-77
2022/10/18 03:32:53;;;;;;;37.08;11.85;;;12.70;99.90;;;;;;5054787;28;20485;-76
2022/10/18 03:35:18;;;;;;;213.90;25.30;;;12.70;99.90;;;;;;5055003;28;20127;-76
2022/10/18 03:37:44;;;;;;;248.88;26.42;;;12.70;99.90;;;;;;5054923;28;20175;-77
2022/10/18 03:40:10;;;;;;;154.23;20.35;;;12.70;99.90;;;;;;5053548;28;20504;-77
2022/10/18 03:42:36;;;;;;;195.35;23.50;;;12.70;99.90;;;;;;5053982;28;20056;-76
2022/10/18 03:45:02;;;;;;;173.00;22.67;;;12.50;99.90;;;;;;5054813;28;20099;-77
2022/10/18 03:47:28;;;;;;;127.18;17.95;;;12.60;99.90;;;;;;5052946;28;20098;-77
2022/10/18 03:49:53;;;;;;;115.00;18.60;;;12.90;99.90;;;;;;5054704;28;20048;-76
2022/10/18 03:52:19;;;;;;;67.07;13.20;;;12.50;99.90;;;;;;5053689;28;20106;-76
2022/10/18 03:54:44;;;;;;;96.88;17.98;;;12.70;99.90;;;;;;5054741;28;20131;-76
2022/10/18 03:57:10;;;;;;;48.38;12.95;;;12.40;99.90;;;;;;5054505;28;20079;-76
2022/10/18 03:59:36;;;;;;;68.10;15.30;;;12.60;99.90;;;;;;5053675;28;20485;-76
2022/10/18 04:02:01;;;;;;;129.95;18.63;;;12.80;99.90;;;;;;5054422;28;20041;-76
2022/10/18 04:04:27;;;;;;;138.85;21.60;;;12.60;99.90;;;;;;5053238;28;20045;-76
2022/10/18 04:06:53;;;;;;;108.97;17.30;;;12.50;99.90;;;;;;5054013;28;20066;-76
2022/10/18 04:09:18;;;;;;;100.95;17.77;;;12.40;99.90;;;;;;5054329;28;20049;-76
2022/10/18 04:11:44;;;;;;;47.47;11.48;;;12.50;99.90;;;;;;5053357;28;20071;-76
2022/10/18 04:14:10;;;;;;;152.98;22.27;;;12.70;99.90;;;;;;5053852;28;20408;-76
2022/10/18 04:16:35;;;;;;;76.35;15.52;;;12.80;99.90;;;;;;5053001;28;20045;-76
2022/10/18 04:19:01;;;;;;;40.47;11.48;;;12.60;99.90;;;;;;5053604;28;20049;-76
2022/10/18 04:21:27;;;;;;;48.33;11.60;;;12.60;99.90;;;;;;5054106;28;20053;-77
2022/10/18 04:23:52;;;;;;;63.33;15.63;;;12.60;99.90;;;;;;5053012;28;20048;-76
2022/10/18 04:26:18;;;;;;;97.72;18.70;;;12.50;99.90;;;;;;5053076;28;20452;-75
2022/10/18 04:28:44;;;;;;;43.13;13.45;;;12.90;99.90;;;;;;5054326;28;20049;-76
2022/10/18 04:31:10;;;;;;;88.97;20.83;;;12.60;99.90;;;;;;5052471;28;20512;-76
2022/10/18 04:33:37;;;;;;;40.85;13.43;;;12.60;99.90;;;;;;5052919;28;20053;-76
2022/10/18 04:36:03;;;;;;;53.53;16.23;;;12.50;99.90;;;;;;5053493;28;20395;-77
2022/10/18 04:38:29;;;;;;;90.13;20.25;;;12.70;99.90;;;;;;5053366;28;20045;-76
2022/10/18 04:40:54;;;;;;;40.33;13.10;;;12.60;99.90;;;;;;5052604;28;20044;-76
2022/10/18 04:43:20;;;;;;;38.60;12.98;;;12.70;99.90;;;;;;5052803;28;20048;-76
2022/10/18 04:45:46;;;;;;;33.88;13.48;;;12.70;99.90;;;;;;5052619;28;20485;-76
2022/10/18 04:48:13;;;;;;;45.90;15.80;;;12.60;99.90;;;;;;5068491;28;20105;-76
2022/10/18 04:50:39;;;;;;;26.60;11.57;;;12.60;99.90;;;;;;5053214;28;20401;-76
2022/10/18 04:53:05;;;;;;;39.15;12.95;;;12.60;99.90;;;;;;5053680;28;20041;-76
2022/10/18 04:55:30;;;;;;;36.15;11.70;;;12.70;99.90;;;;;;5036012;28;20045;-76
2022/10/18 04:57:56;;;;;;;45.17;15.77;;;12.60;99.90;;;;;;5052279;28;20473;-76
2022/10/18 05:00:22;;;;;;;17.60;10.40;;;12.60;99.90;;;;;;5053493;28;20083;-76
2022/10/18 05:02:47;;;;;;;39.28;11.57;;;12.50;99.90;;;;;;5052334;28;20103;-76
2022/10/18 05:05:13;;;;;;;33.90;11.18;;;12.40;99.90;;;;;;5053848;28;20144;-77
2022/10/18 05:07:39;;;;;;;20.02;10.48;;;12.60;99.90;;;;;;5053101;28;20040;-77
2022/10/18 05:10:05;;;;;;;60.63;12.40;;;12.40;99.90;;;;;;5053853;28;20057;-76
2022/10/18 05:12:30;;;;;;;55.92;12.75;;;12.40;99.90;;;;;;5053370;28;20215;-76
2022/10/18 05:14:56;;;;;;;29.92;10.57;;;12.40;99.90;;;;;;5052249;28;20143;-76
2022/10/18 05:17:22;;;;;;;76.70;16.50;;;12.40;99.90;;;;;;5053260;28;20049;-77
2022/10/18 05:19:47;;;;;;;26.30;10.68;;;12.60;99.90;;;;;;5052863;28;20131;-76
2022/10/18 05:22:13;;;;;;;68.93;14.23;;;12.60;99.90;;;;;;5052138;28;20041;-76
2022/10/18 05:24:39;;;;;;;79.30;15.30;;;11.80;99.90;;;;;;5052954;28;20045;-77
2022/10/18 05:27:04;;;;;;;34.15;10.27;;;12.40;99.90;;;;;;5052088;28;20094;-76
2022/10/18 05:29:30;;;;;;;46.88;11.43;;;12.40;99.90;;;;;;5053806;28;20041;-76
2022/10/18 05:31:56;;;;;;;122.47;21.02;;;12.40;99.90;;;;;;5053577;28;20045;-76
2022/10/18 05:34:21;;;;;;;92.25;16.40;;;12.30;99.90;;;;;;5052018;28;20432;-76
2022/10/18 05:36:50;;;;;;;38.65;11.75;;;12.40;99.90;;;;;;5051815;28;20053;-76
2022/10/18 05:39:15;;;;;;;96.00;15.15;;;12.50;99.90;;;;;;5053171;28;20053;-76
2022/10/18 05:41:41;;;;;;;52.38;12.80;;;12.40;99.90;;;;;;5035512;28;20167;-76
2022/10/18 05:44:07;;;;;;;38.38;11.00;;;12.60;99.90;;;;;;5051695;28;20048;-76
2022/10/18 05:46:32;;;;;;;35.70;9.80;;;12.50;99.90;;;;;;5053383;28;20041;-77
2022/10/18 05:48:58;;;;;;;62.60;13.23;;;12.50;99.90;;;;;;5052690;28;20164;-76
2022/10/18 05:51:24;;;;;;;36.85;11.55;;;12.40;99.90;;;;;;5053687;28;20052;-76
2022/10/18 05:53:49;;;;;;;24.77;9.13;;;12.30;99.90;;;;;;5056878;28;20068;-76
2022/10/18 05:56:15;;;;;;;68.93;16.30;;;12.30;99.90;;;;;;5055595;28;20049;-76
2022/10/18 05:58:42;;;;;;;26.83;8.95;;;12.50;99.90;;;;;;5056815;28;20052;-77
2022/10/18 06:01:09;;;;;;;36.45;10.10;;;12.40;99.90;;;;;;5072463;28;20049;-77
2022/10/18 06:03:35;;;;;;;112.38;17.60;;;12.30;99.90;;;;;;5057260;28;20055;-76
2022/10/18 06:06:03;;;;;;;80.63;13.50;;;12.30;99.90;;;;;;5056724;28;20071;-76
2022/10/18 06:08:29;;;;;;;82.80;15.07;;;12.90;99.90;;;;;;5056664;28;20045;-75
2022/10/18 06:10:55;;;;;;;65.55;11.80;;;12.30;99.90;;;;;;5056589;28;20048;-76
2022/10/18 06:13:20;;;;;;;39.83;10.30;;;12.20;99.90;;;;;;5056459;28;20056;-76
2022/10/18 06:15:46;;;;;;;57.72;12.50;;;11.60;99.90;;;;;;5039044;28;20049;-76
2022/10/18 06:18:12;;;;;;;47.83;11.00;;;12.30;99.90;;;;;;5054809;28;20397;-76
2022/10/18 06:20:38;;;;;;;25.23;9.55;;;12.30;99.90;;;;;;5056372;28;20041;-76
2022/10/18 06:23:03;;;;;;;52.33;13.40;;;12.30;99.90;;;;;;5055180;28;20493;-77
2022/10/18 06:25:29;;;;;;;37.72;11.02;;;12.30;99.90;;;;;;5055117;28;20397;-77
2022/10/18 06:27:54;;;;;;;34.42;11.02;;;12.30;99.90;;;;;;5055063;28;20049;-77
2022/10/18 06:30:20;;;;;;;95.72;15.65;;;12.40;99.90;;;;;;5056272;28;20132;-76
2022/10/18 06:32:46;;;;;;;68.45;12.98;;;12.30;99.90;;;;;;5056157;28;20045;-77
2022/10/18 06:35:11;;;;;;;84.07;13.23;;;12.30;99.90;;;;;;5056167;28;20049;-77
2022/10/18 06:37:37;;;;;;;82.63;13.05;;;12.30;99.90;;;;;;5054907;28;20124;-77
2022/10/18 06:40:04;;;;;;;67.03;12.50;;;12.10;99.90;;;;;;5056070;28;20040;-77
2022/10/18 06:42:30;;;;;;;59.53;13.20;;;12.30;99.90;;;;;;5021862;28;20088;-77
2022/10/18 06:44:56;;;;;;;80.93;12.70;;;12.20;99.90;;;;;;5055943;28;20491;-76
2022/10/18 06:47:22;;;;;;;32.17;8.75;;;12.10;99.90;;;;;;5055967;28;20044;-77
2022/10/18 06:49:48;;;;;;;65.28;12.82;;;12.30;99.90;;;;;;5054165;28;20045;-77
2022/10/18 06:52:16;;;;;;;110.32;13.80;;;12.20;99.90;;;;;;5054616;28;20045;-76
2022/10/18 06:54:42;;;;;;;134.48;19.05;;;12.20;99.90;;;;;;5055052;28;20049;-77
2022/10/18 06:57:08;;;;;;;141.68;17.83;;;12.10;99.90;;;;;;5055614;28;20539;-76
2022/10/18 06:59:34;;;;;;;169.35;17.80;;;12.10;99.90;;;;;;5054835;28;20048;-76
2022/10/18 07:02:00;;;;;;;118.60;13.30;;;12.20;99.90;;;;;;5037962;28;20080;-76
2022/10/18 07:04:31;;;;;;;112.78;11.93;;;12.20;99.90;;;;;;5054901;28;20393;-76
2022/10/18 07:06:57;;;;;;;71.63;13.20;;;12.20;99.90;;;;;;5055510;28;20051;-77
2022/10/18 07:09:23;;;;;;;86.00;13.20;;;12.10;99.90;;;;;;5054059;28;20128;-77
2022/10/18 07:11:49;;;;;;;79.50;11.55;;;12.20;99.90;;;;;;5054494;28;20060;-76
2022/10/18 07:14:14;;;;;;;49.25;8.93;;;12.10;99.90;;;;;;5054057;28;20154;-77
2022/10/18 07:16:40;;;;;;;85.80;11.10;;;12.20;99.90;;;;;;5055281;28;20037;-76
2022/10/18 07:19:06;;;;;;;159.63;17.58;;;12.30;99.90;;;;;;5054768;28;20499;-77
2022/10/18 07:21:31;;;;;;;82.53;10.48;;;12.10;99.90;;;;;;5054318;28;20127;-77
2022/10/18 07:23:57;;;;;;;149.48;15.65;;;12.10;99.90;;;;;;5055225;28;20505;-76
2022/10/18 07:26:29;;;;;;;147.10;15.27;;;12.10;99.90;;;;;;5054206;28;20053;-77
2022/10/18 07:28:57;;;;;;;90.35;10.63;;;12.20;99.90;;;;;;5070793;28;20041;-77
2022/10/18 07:31:23;;;;;;;95.40;11.90;;;12.10;99.90;;;;;;5055052;28;20052;-77
2022/10/18 07:33:49;;;;;;;77.53;10.25;;;12.00;99.90;;;;;;5070808;28;20071;-77
2022/10/18 07:36:15;;;;;;;146.10;15.80;;;12.00;99.90;;;;;;5053792;28;20541;-76
2022/10/18 07:38:41;;;;;;;26.73;7.70;;;12.00;99.90;;;;;;5053972;28;20052;-77
2022/10/18 07:41:09;;;;;;;133.75;18.05;;;12.00;99.90;;;;;;5070537;28;20535;-76
2022/10/18 07:43:35;;;;;;;33.70;8.63;;;12.60;99.90;;;;;;5054810;28;20041;-76
2022/10/18 07:46:03;;;;;;;42.42;9.25;;;12.10;99.90;;;;;;5054826;28;20136;-75
2022/10/18 07:48:29;;;;;;;22.00;7.53;;;12.10;99.90;;;;;;5054202;28;20052;-76
2022/10/18 07:50:58;;;;;;;17.08;7.10;;;12.40;99.90;;;;;;5053734;28;20056;-76
2022/10/18 07:53:24;;;;;;;18.83;7.75;;;12.10;99.90;;;;;;5053543;28;20056;-77
2022/10/18 07:55:50;;;;;;;58.42;9.43;;;12.20;99.90;;;;;;5037379;28;20045;-76
2022/10/18 07:58:15;;;;;;;54.03;9.40;;;12.10;99.90;;;;;;5053447;28;20045;-76
2022/10/18 08:00:42;;;;;;;41.42;9.55;;;12.10;99.90;;;;;;5054919;28;20071;-75
2022/10/18 08:03:07;;;;;;;26.95;8.80;;;12.10;99.90;;;;;;5053673;28;20041;-75
2022/10/18 08:05:33;;;;;;;31.15;9.43;;;12.10;99.90;;;;;;5054605;28;20393;-75
2022/10/18 08:07:59;;;;;;;90.78;12.45;;;12.10;99.90;;;;;;5054813;28;20132;-75
2022/10/18 08:10:24;;;;;;;17.27;6.63;;;12.00;99.90;;;;;;5054505;28;20067;-74
2022/10/18 08:12:50;;;;;;;24.42;7.60;;;12.10;99.90;;;;;;5069536;28;20040;-74
2022/10/18 08:15:16;;;;;;;25.15;8.05;;;12.20;99.90;;;;;;5054275;28;20056;-76
2022/10/18 08:17:44;;;;;;;10.57;6.05;;;12.20;99.90;;;;;;5052902;28;20397;-76
2022/10/18 08:20:10;;;;;;;14.07;7.07;;;12.20;99.90;;;;;;5053253;28;20045;-75
2022/10/18 08:22:36;;;;;;;22.50;9.30;;;12.10;99.90;;;;;;5053282;28;20052;-76
2022/10/18 08:25:02;;;;;;;12.50;6.75;;;12.10;99.90;;;;;;5054234;28;20098;-76
2022/10/18 08:27:27;;;;;;;16.02;8.38;;;12.30;99.90;;;;;;5053244;28;20094;-74
2022/10/18 08:29:53;;;;;;;13.82;7.78;;;12.20;99.90;;;;;;5054194;28;20051;-74
2022/10/18 08:32:19;;;;;;;14.65;6.90;;;12.30;99.90;;;;;;5053091;28;20045;-76
2022/10/18 08:34:44;;;;;;;14.60;7.85;;;12.30;99.90;;;;;;5053077;28;20045;-76
2022/10/18 08:37:10;;;;;;;12.00;6.53;;;12.30;99.90;;;;;;5036329;28;20478;-76
2022/10/18 08:39:36;;;;;;;12.60;7.22;;;12.40;99.90;;;;;;5036464;28;20041;-76
2022/10/18 08:42:46;;;;;;;9.13;6.13;;;13.20;99.90;;;;;;5054061;28;20056;-74
2022/10/18 08:45:12;;;;;;;16.30;7.18;;;12.40;99.90;;;;;;5035533;28;20511;-75
2022/10/18 08:47:42;;;;;;;14.32;6.90;;;12.50;99.90;;;;;;5058876;28;20052;-75
2022/10/18 08:50:20;;;;;;;13.25;6.25;;;12.50;99.90;;;;;;5061797;28;20099;-75
2022/10/18 08:52:49;;;;;;;9.45;5.80;;;12.50;99.90;;;;;;5060816;28;20382;-74
2022/10/18 08:55:25;;;;;;;11.57;5.50;;;12.50;99.90;;;;;;5064636;28;20044;-75
2022/10/18 08:57:51;;;;;;;11.27;6.03;;;12.50;99.90;;;;;;5063061;28;20056;-74
2022/10/18 09:00:23;;;;;;;8.50;5.32;;;12.60;99.90;;;;;;5062146;28;20044;-74
2022/10/18 09:03:06;;;;;;;11.63;5.50;;;12.70;99.90;;;;;;5062715;28;20063;-74
2022/10/18 09:06:19;;;;;;;10.50;4.85;;;12.60;99.90;;;;;;5079041;28;20488;-74
2022/10/18 09:08:56;;;;;;;10.18;4.63;;;12.70;99.90;;;;;;5020978;28;20152;-74
2022/10/18 09:11:40;;;;;;;10.18;4.95;;;12.80;99.90;;;;;;4986270;28;20049;-75
2022/10/18 09:14:26;;;;;;;9.48;4.70;;;12.70;99.90;;;;;;5041195;28;20096;-75
2022/10/18 09:17:36;;;;;;;10.88;3.90;;;12.80;99.90;;;;;;5059058;28;20200;-73
2022/10/18 09:20:24;;;;;;;11.05;3.92;;;12.90;99.90;;;;;;5021748;28;20076;-74
2022/10/18 09:22:49;;;;;;;7.05;3.53;;;12.90;99.90;;;;;;5061718;28;20056;-74
2022/10/18 09:25:17;;;;;;;10.20;3.17;;;13.00;99.90;;;;;;5063611;28;20048;-74
2022/10/18 09:27:46;;;;;;;7.63;3.40;;;13.20;99.90;;;;;;5066368;28;20484;-74
2022/10/18 09:30:44;;;;;;;14.38;3.97;;;12.80;99.90;;;;;;5068157;28;20120;-73
2022/10/18 09:33:39;;;;;;;7.80;3.42;;;13.10;99.90;;;;;;5066356;28;20079;-74
2022/10/18 09:36:09;;;;;;;7.20;2.67;;;13.20;99.90;;;;;;5004155;28;20062;-73
2022/10/18 09:38:46;;;;;;;11.80;2.90;;;13.20;99.90;;;;;;5065913;28;20056;-74
2022/10/18 09:41:24;;;;;;;9.82;2.65;;;13.30;99.90;;;;;;5065043;28;20049;-73
2022/10/18 09:43:55;;;;;;;6.07;2.20;;;13.30;99.90;;;;;;5066590;28;20079;-74
2022/10/18 09:46:27;;;;;;;8.48;2.20;;;13.30;99.90;;;;;;5065297;28;20037;-74
2022/10/18 09:49:06;;;;;;;8.90;2.10;;;13.30;99.90;;;;;;5065360;28;20524;-75
2022/10/18 09:51:41;;;;;;;6.05;1.83;;;13.40;99.90;;;;;;5064747;28;20115;-73
2022/10/18 09:54:21;;;;;;;5.38;1.90;;;13.30;99.90;;;;;;5065462;28;20045;-73
2022/10/18 09:56:56;;;;;;;9.20;2.10;;;13.50;99.90;;;;;;5065649;28;20045;-73
2022/10/18 09:59:37;;;;;;;6.60;1.45;;;13.60;99.90;;;;;;5063207;28;20048;-74
2022/10/18 10:02:04;;;;;;;5.05;1.27;;;13.70;99.90;;;;;;5064310;28;20048;-72
2022/10/18 10:04:29;;;;;;;10.63;1.70;;;13.70;99.90;;;;;;5031682;28;20051;-71
2022/10/18 10:06:59;;;;;;;7.13;1.25;;;13.70;99.90;;;;;;5064381;28;20040;-73
2022/10/18 10:09:34;;;;;;;4.88;1.13;;;13.80;99.90;;;;;;5064940;28;20110;-73
2022/10/18 10:12:01;;;;;;;10.15;1.08;;;13.80;99.90;;;;;;5062828;28;20051;-73
2022/10/18 10:14:29;;;;;;;5.70;1.10;;;13.80;99.90;;;;;;5048552;28;20513;-74
2022/10/18 10:16:57;;;;;;;6.28;1.30;;;13.90;99.90;;;;;;5065032;28;20526;-74
2022/10/18 10:19:29;;;;;;;8.05;0.88;;;13.90;99.90;;;;;;5064192;28;20059;-73
2022/10/18 10:22:23;;;;;;;7.15;0.90;;;14.00;99.90;;;;;;5065581;28;20048;-73
2022/10/18 10:24:52;;;;;;;7.00;1.00;;;14.20;99.90;;;;;;5064934;28;20045;-73
2022/10/18 10:27:29;;;;;;;7.97;1.17;;;14.20;99.90;;;;;;5063286;28;20048;-73
2022/10/18 10:30:00;;;;;;;7.15;1.02;;;14.20;99.90;;;;;;5074691;28;20114;-73
2022/10/18 10:32:29;;;;;;;6.85;0.75;;;14.30;99.90;;;;;;5058105;28;20412;-73
2022/10/18 10:34:55;;;;;;;7.45;0.90;;;14.20;99.90;;;;;;5074956;28;20056;-71
2022/10/18 10:37:28;;;;;;;8.35;1.20;;;14.10;99.90;;;;;;5075187;28;20055;-74
2022/10/18 10:40:16;;;;;;;7.85;0.82;;;14.40;99.90;;;;;;5074789;28;20041;-74
2022/10/18 10:43:08;;;;;;;3.63;0.68;;;14.40;99.90;;;;;;5075475;28;20060;-73
2022/10/18 10:45:42;;;;;;;5.93;0.98;;;14.40;99.90;;;;;;5089707;28;20064;-73
2022/10/18 10:48:19;;;;;;;3.17;0.80;;;14.40;99.90;;;;;;5058188;28;20170;-73
2022/10/18 10:50:59;;;;;;;8.70;1.17;;;14.50;99.90;;;;;;5059125;28;20182;-72
2022/10/18 10:53:42;;;;;;;4.13;1.10;;;14.60;99.90;;;;;;5076179;28;20056;-72
2022/10/18 10:56:20;;;;;;;5.72;0.65;;;14.70;99.90;;;;;;5075713;28;20563;-73
2022/10/18 10:58:46;;;;;;;6.72;1.15;;;14.70;99.90;;;;;;5075891;28;20055;-72
2022/10/18 11:01:30;;;;;;;8.02;0.88;;;14.70;99.90;;;;;;5074715;28;20048;-72
2022/10/18 11:03:59;;;;;;;9.15;0.80;;;14.80;99.90;;;;;;5072335;28;20392;-75
2022/10/18 11:06:39;;;;;;;6.40;1.48;;;14.70;99.90;;;;;;5064347;28;20405;-74
2022/10/18 11:09:18;;;;;;;7.35;1.30;;;14.80;99.90;;;;;;5063278;28;20496;-75
2022/10/18 11:11:57;;;;;;;4.97;0.90;;;14.90;99.90;;;;;;5062624;28;20515;-72
2022/10/18 11:14:26;;;;;;;6.70;0.80;;;15.10;99.90;;;;;;5062305;28;20135;-73
2022/10/18 11:17:04;;;;;;;5.43;0.70;;;14.90;99.90;;;;;;5062935;28;20044;-73
2022/10/18 11:19:44;;;;;;;8.50;0.88;;;15.10;99.90;;;;;;5062720;28;20060;-73
2022/10/18 11:22:16;;;;;;;5.03;0.70;;;15.10;99.90;;;;;;5064403;28;20119;-75
2022/10/18 11:24:42;;;;;;;9.80;1.33;;;15.30;99.90;;;;;;5063065;28;20073;-73
2022/10/18 11:27:25;;;;;;;6.45;1.00;;;15.10;99.90;;;;;;5064214;28;20045;-73
2022/10/18 11:29:59;;;;;;;;;;;15.30;99.90;;;;;;5065171;28;20094;-72
2022/10/18 11:32:43;;;;;;;5.70;0.98;;;15.20;99.90;;;;;;5065141;28;19932;-72
2022/10/18 11:35:22;;;;;;;5.35;0.75;;;15.40;99.90;;;;;;5080717;28;20049;-72
2022/10/18 11:38:07;;;;;;;4.10;0.68;;;15.30;99.90;;;;;;5064338;28;20049;-73
2022/10/18 11:40:58;;;;;;;5.25;0.60;;;15.60;99.90;;;;;;5064178;28;20110;-73
2022/10/18 11:44:00;;;;;;;9.52;0.80;;;15.70;99.90;;;;;;5063186;28;20040;-73
2022/10/18 11:47:04;;;;;;;3.72;0.70;;;15.90;99.90;;;;;;5061261;28;20519;-73
2022/10/18 11:49:52;;;;;;;4.00;0.70;;;15.60;99.90;;;;;;5045324;28;20099;-72
2022/10/18 11:52:35;;;;;;;4.72;0.60;;;15.50;99.90;;;;;;5060452;28;20049;-73
2022/10/18 11:55:21;;;;;;;6.15;0.73;;;15.50;99.90;;;;;;5062146;28;20048;-73
2022/10/18 11:58:01;;;;;;;5.20;0.80;;;15.40;99.90;;;;;;5077125;28;20045;-75
2022/10/18 12:00:48;;;;;;;5.38;0.88;;;15.50;99.90;;;;;;5053526;28;20052;-73
2022/10/18 12:03:37;;;;;;;4.28;0.80;;;15.40;99.90;;;;;;5070326;28;20043;-73
2022/10/18 12:06:10;;;;;;;4.05;0.60;;;15.30;99.90;;;;;;5060477;28;20066;-73
2022/10/18 12:08:38;;;;;;;;;;;15.60;99.90;;;;;;5074486;28;20040;-73
2022/10/18 12:11:48;;;;;;;5.07;0.70;;;15.50;99.90;;;;;;5073268;28;19927;-74
2022/10/18 12:14:35;;;;;;;4.20;0.70;;;15.60;99.90;;;;;;5052045;28;20464;-74
2022/10/18 12:17:14;;;;;;;9.48;1.08;;;15.70;99.90;;;;;;5035415;28;20520;-75
2022/10/18 12:19:41;;;;;;;6.30;0.90;;;15.80;99.90;;;;;;5067991;28;20052;-74
2022/10/18 12:22:26;;;;;;;4.80;0.80;;;15.60;99.90;;;;;;5056643;28;20109;-73
2022/10/18 12:24:51;;;;;;;6.95;0.80;;;15.60;99.90;;;;;;5073136;28;20049;-73
2022/10/18 12:27:21;;;;;;;5.13;0.52;;;15.60;99.90;;;;;;5074216;28;20040;-74
2022/10/18 12:29:57;;;;;;;3.80;0.60;;;15.60;99.90;;;;;;5074177;28;20049;-73
2022/10/18 12:32:30;;;;;;;6.75;0.77;;;15.50;99.90;;;;;;5074304;28;20439;-73
2022/10/18 12:35:05;;;;;;;3.28;0.60;;;15.70;99.90;;;;;;5059511;28;20052;-74
2022/10/18 12:37:37;;;;;;;6.72;0.70;;;15.50;99.90;;;;;;5061844;28;20045;-75
2022/10/18 12:40:33;;;;;;;6.60;0.80;;;15.50;99.90;;;;;;5062226;28;20044;-74
2022/10/18 12:42:59;;;;;;;5.75;0.70;;;15.80;99.90;;;;;;5076743;28;20055;-73
2022/10/18 12:45:27;;;;;;;6.97;0.90;;;15.70;99.90;;;;;;5064191;28;20037;-74
2022/10/18 12:47:57;;;;;;;6.30;1.02;;;16.00;99.90;;;;;;5061312;28;20062;-73
2022/10/18 12:50:41;;;;;;;4.20;0.60;;;15.90;99.90;;;;;;5063918;28;20125;-74
2022/10/18 12:53:22;;;;;;;3.03;0.70;;;15.80;99.90;;;;;;5059197;28;20044;-73